sensor_id;sensor_type;location;lat;lon;timestamp;temperature;humidity
72380;SHT30;60354;47.798;12.472;2022-10-04T00:01:58;8.46;87.19
72380;SHT30;60354;47.798;12.472;2022-10-04T00:04:32;8.43;86.68
72380;SHT30;60354;47.798;12.472;2022-10-04T00:09:43;8.35;88.22
72380;SHT30;60354;47.798;12.472;2022-10-04T00:12:43;8.31;87.92
72380;SHT30;60354;47.798;12.472;2022-10-04T00:17:44;8.29;87.77
72380;SHT30;60354;47.798;12.472;2022-10-04T00:20:55;8.20;87.70
72380;SHT30;60354;47.798;12.472;2022-10-04T00:25:55;8.14;88.17
72380;SHT30;60354;47.798;12.472;2022-10-04T00:31:19;8.12;86.91
72380;SHT30;60354;47.798;12.472;2022-10-04T00:47:03;7.90;86.76
72380;SHT30;60354;47.798;12.472;2022-10-04T00:49:39;7.97;86.90
72380;SHT30;60354;47.798;12.472;2022-10-04T00:52:13;7.95;86.78
72380;SHT30;60354;47.798;12.472;2022-10-04T00:54:47;7.97;86.93
72380;SHT30;60354;47.798;12.472;2022-10-04T01:00:17;7.90;86.79
72380;SHT30;60354;47.798;12.472;2022-10-04T01:03:14;7.84;87.09
72380;SHT30;60354;47.798;12.472;2022-10-04T01:05:41;7.75;88.19
72380;SHT30;60354;47.798;12.472;2022-10-04T01:08:12;7.74;87.60
72380;SHT30;60354;47.798;12.472;2022-10-04T01:10:49;7.70;88.06
72380;SHT30;60354;47.798;12.472;2022-10-04T01:13:44;7.70;89.48
72380;SHT30;60354;47.798;12.472;2022-10-04T01:16:21;7.73;88.14
72380;SHT30;60354;47.798;12.472;2022-10-04T01:18:47;7.75;88.72
72380;SHT30;60354;47.798;12.472;2022-10-04T01:29:08;7.78;87.60
72380;SHT30;60354;47.798;12.472;2022-10-04T01:31:36;7.84;88.94
72380;SHT30;60354;47.798;12.472;2022-10-04T01:34:03;7.71;87.93
72380;SHT30;60354;47.798;12.472;2022-10-04T01:36:30;7.75;88.42
72380;SHT30;60354;47.798;12.472;2022-10-04T01:38:56;7.77;88.63
72380;SHT30;60354;47.798;12.472;2022-10-04T01:41:31;7.73;88.15
72380;SHT30;60354;47.798;12.472;2022-10-04T01:44:02;7.69;88.90
72380;SHT30;60354;47.798;12.472;2022-10-04T01:46:33;7.64;89.19
72380;SHT30;60354;47.798;12.472;2022-10-04T01:49:03;7.57;89.16
72380;SHT30;60354;47.798;12.472;2022-10-04T01:51:34;7.64;88.87
72380;SHT30;60354;47.798;12.472;2022-10-04T01:56:36;7.62;88.25
72380;SHT30;60354;47.798;12.472;2022-10-04T01:59:06;7.63;88.16
72380;SHT30;60354;47.798;12.472;2022-10-04T02:01:49;7.70;88.95
72380;SHT30;60354;47.798;12.472;2022-10-04T02:04:19;7.66;89.38
72380;SHT30;60354;47.798;12.472;2022-10-04T02:06:48;7.43;89.68
72380;SHT30;60354;47.798;12.472;2022-10-04T02:09:37;7.34;88.37
72380;SHT30;60354;47.798;12.472;2022-10-04T02:12:04;7.37;90.11
72380;SHT30;60354;47.798;12.472;2022-10-04T02:14:34;7.42;89.17
72380;SHT30;60354;47.798;12.472;2022-10-04T02:17:03;7.36;88.43
72380;SHT30;60354;47.798;12.472;2022-10-04T02:19:36;7.39;88.83
72380;SHT30;60354;47.798;12.472;2022-10-04T02:22:04;7.37;88.26
72380;SHT30;60354;47.798;12.472;2022-10-04T02:24:35;7.39;88.38
72380;SHT30;60354;47.798;12.472;2022-10-04T02:27:02;7.43;88.55
72380;SHT30;60354;47.798;12.472;2022-10-04T02:29:27;7.42;90.25
72380;SHT30;60354;47.798;12.472;2022-10-04T02:31:53;7.39;88.15
72380;SHT30;60354;47.798;12.472;2022-10-04T02:34:37;7.36;89.39
72380;SHT30;60354;47.798;12.472;2022-10-04T02:37:05;7.43;87.99
72380;SHT30;60354;47.798;12.472;2022-10-04T02:40:02;7.39;88.34
72380;SHT30;60354;47.798;12.472;2022-10-04T02:42:46;7.37;88.43
72380;SHT30;60354;47.798;12.472;2022-10-04T02:45:28;7.34;88.74
72380;SHT30;60354;47.798;12.472;2022-10-04T02:48:00;7.44;88.67
72380;SHT30;60354;47.798;12.472;2022-10-04T02:53:00;7.52;89.48
72380;SHT30;60354;47.798;12.472;2022-10-04T02:55:29;7.49;89.45
72380;SHT30;60354;47.798;12.472;2022-10-04T02:57:56;7.49;88.33
72380;SHT30;60354;47.798;12.472;2022-10-04T03:00:28;7.49;89.22
72380;SHT30;60354;47.798;12.472;2022-10-04T03:06:11;7.46;89.76
72380;SHT30;60354;47.798;12.472;2022-10-04T03:08:53;7.52;89.57
72380;SHT30;60354;47.798;12.472;2022-10-04T03:11:21;7.50;90.01
72380;SHT30;60354;47.798;12.472;2022-10-04T03:13:51;7.56;90.04
72380;SHT30;60354;47.798;12.472;2022-10-04T03:16:18;7.52;90.56
72380;SHT30;60354;47.798;12.472;2022-10-04T03:18:45;7.62;90.51
72380;SHT30;60354;47.798;12.472;2022-10-04T03:21:15;7.60;90.33
72380;SHT30;60354;47.798;12.472;2022-10-04T03:23:42;7.62;90.25
72380;SHT30;60354;47.798;12.472;2022-10-04T03:28:52;7.63;91.24
72380;SHT30;60354;47.798;12.472;2022-10-04T03:31:18;7.62;90.51
72380;SHT30;60354;47.798;12.472;2022-10-04T03:33:44;7.66;90.98
72380;SHT30;60354;47.798;12.472;2022-10-04T03:36:15;7.69;90.22
72380;SHT30;60354;47.798;12.472;2022-10-04T03:38:43;7.53;89.70
72380;SHT30;60354;47.798;12.472;2022-10-04T03:41:10;7.40;89.40
72380;SHT30;60354;47.798;12.472;2022-10-04T03:43:43;7.33;90.36
72380;SHT30;60354;47.798;12.472;2022-10-04T03:46:09;7.16;90.66
72380;SHT30;60354;47.798;12.472;2022-10-04T03:48:47;7.02;90.12
72380;SHT30;60354;47.798;12.472;2022-10-04T03:51:23;6.99;91.45
72380;SHT30;60354;47.798;12.472;2022-10-04T03:53:54;6.93;91.02
72380;SHT30;60354;47.798;12.472;2022-10-04T03:56:34;6.98;90.97
72380;SHT30;60354;47.798;12.472;2022-10-04T03:59:02;7.02;90.99
72380;SHT30;60354;47.798;12.472;2022-10-04T04:04:10;6.98;89.87
72380;SHT30;60354;47.798;12.472;2022-10-04T04:06:45;7.01;90.87
72380;SHT30;60354;47.798;12.472;2022-10-04T04:09:25;7.06;90.84
72380;SHT30;60354;47.798;12.472;2022-10-04T04:11:53;7.02;89.08
72380;SHT30;60354;47.798;12.472;2022-10-04T04:14:23;7.02;89.15
72380;SHT30;60354;47.798;12.472;2022-10-04T04:16:52;7.03;90.36
72380;SHT30;60354;47.798;12.472;2022-10-04T04:19:21;7.06;88.98
72380;SHT30;60354;47.798;12.472;2022-10-04T04:21:48;7.06;89.19
72380;SHT30;60354;47.798;12.472;2022-10-04T04:24:23;7.18;90.22
72380;SHT30;60354;47.798;12.472;2022-10-04T04:26:55;7.22;90.84
72380;SHT30;60354;47.798;12.472;2022-10-04T04:29:21;7.18;90.13
72380;SHT30;60354;47.798;12.472;2022-10-04T04:32:11;6.85;88.83
72380;SHT30;60354;47.798;12.472;2022-10-04T04:35:07;6.70;90.27
72380;SHT30;60354;47.798;12.472;2022-10-04T04:38:01;6.53;91.21
72380;SHT30;60354;47.798;12.472;2022-10-04T04:40:27;6.37;90.39
72380;SHT30;60354;47.798;12.472;2022-10-04T04:42:56;6.45;91.49
72380;SHT30;60354;47.798;12.472;2022-10-04T04:45:25;6.51;90.49
72380;SHT30;60354;47.798;12.472;2022-10-04T04:47:54;6.64;91.47
72380;SHT30;60354;47.798;12.472;2022-10-04T04:50:26;6.71;91.51
72380;SHT30;60354;47.798;12.472;2022-10-04T04:52:57;6.85;92.16
72380;SHT30;60354;47.798;12.472;2022-10-04T04:55:27;7.01;92.70
72380;SHT30;60354;47.798;12.472;2022-10-04T04:57:55;7.08;92.27
72380;SHT30;60354;47.798;12.472;2022-10-04T05:00:29;7.12;91.58
72380;SHT30;60354;47.798;12.472;2022-10-04T05:03:00;7.18;91.97
72380;SHT30;60354;47.798;12.472;2022-10-04T05:05:34;7.19;91.13
72380;SHT30;60354;47.798;12.472;2022-10-04T05:10:40;7.06;90.80
72380;SHT30;60354;47.798;12.472;2022-10-04T05:13:07;6.96;90.83
72380;SHT30;60354;47.798;12.472;2022-10-04T05:15:36;6.92;90.18
72380;SHT30;60354;47.798;12.472;2022-10-04T05:18:13;6.82;90.17
72380;SHT30;60354;47.798;12.472;2022-10-04T05:20:47;6.78;90.83
72380;SHT30;60354;47.798;12.472;2022-10-04T05:23:13;6.55;90.30
72380;SHT30;60354;47.798;12.472;2022-10-04T05:25:39;6.40;90.69
72380;SHT30;60354;47.798;12.472;2022-10-04T05:28:05;6.40;91.30
72380;SHT30;60354;47.798;12.472;2022-10-04T05:31:33;6.43;90.84
72380;SHT30;60354;47.798;12.472;2022-10-04T05:33:48;6.48;91.43
72380;SHT30;60354;47.798;12.472;2022-10-04T05:37:17;6.44;90.80
72380;SHT30;60354;47.798;12.472;2022-10-04T05:44:51;6.33;91.29
72380;SHT30;60354;47.798;12.472;2022-10-04T05:47:19;6.34;90.23
72380;SHT30;60354;47.798;12.472;2022-10-04T05:49:51;6.44;90.71
72380;SHT30;60354;47.798;12.472;2022-10-04T05:52:27;6.54;90.85
72380;SHT30;60354;47.798;12.472;2022-10-04T05:58:27;6.81;91.44
72380;SHT30;60354;47.798;12.472;2022-10-04T06:01:22;6.85;91.47
72380;SHT30;60354;47.798;12.472;2022-10-04T06:04:07;6.98;92.28
72380;SHT30;60354;47.798;12.472;2022-10-04T06:06:48;7.09;92.57
72380;SHT30;60354;47.798;12.472;2022-10-04T06:12:09;7.23;91.56
72380;SHT30;60354;47.798;12.472;2022-10-04T06:20:20;7.01;91.95
72380;SHT30;60354;47.798;12.472;2022-10-04T06:22:56;7.15;91.40
72380;SHT30;60354;47.798;12.472;2022-10-04T06:25:25;7.29;91.22
72380;SHT30;60354;47.798;12.472;2022-10-04T06:30:55;7.60;91.27
72380;SHT30;60354;47.798;12.472;2022-10-04T06:50:53;8.16;91.30
72380;SHT30;60354;47.798;12.472;2022-10-04T06:53:51;8.28;91.77
72380;SHT30;60354;47.798;12.472;2022-10-04T07:02:39;8.69;90.05
72380;SHT30;60354;47.798;12.472;2022-10-04T07:05:14;8.80;90.20
72380;SHT30;60354;47.798;12.472;2022-10-04T07:07:45;8.91;89.78
72380;SHT30;60354;47.798;12.472;2022-10-04T07:15:31;9.14;88.22
72380;SHT30;60354;47.798;12.472;2022-10-04T07:18:03;9.31;88.73
72380;SHT30;60354;47.798;12.472;2022-10-04T07:20:32;9.51;87.73
72380;SHT30;60354;47.798;12.472;2022-10-04T07:23:05;9.78;87.10
72380;SHT30;60354;47.798;12.472;2022-10-04T07:25:43;9.90;86.57
72380;SHT30;60354;47.798;12.472;2022-10-04T07:28:16;10.05;87.05
72380;SHT30;60354;47.798;12.472;2022-10-04T07:31:23;10.13;87.00
72380;SHT30;60354;47.798;12.472;2022-10-04T07:34:07;10.10;86.32
72380;SHT30;60354;47.798;12.472;2022-10-04T07:36:55;10.03;86.55
72380;SHT30;60354;47.798;12.472;2022-10-04T07:39:26;9.99;86.85
72380;SHT30;60354;47.798;12.472;2022-10-04T07:41:56;10.06;86.11
72380;SHT30;60354;47.798;12.472;2022-10-04T07:44:36;10.00;85.53
72380;SHT30;60354;47.798;12.472;2022-10-04T07:49:27;10.55;85.37
72380;SHT30;60354;47.798;12.472;2022-10-04T07:54:49;10.74;82.69
72380;SHT30;60354;47.798;12.472;2022-10-04T08:05:38;11.11;82.13
72380;SHT30;60354;47.798;12.472;2022-10-04T08:25:27;12.35;78.46
72380;SHT30;60354;47.798;12.472;2022-10-04T08:33:06;12.20;79.43
72380;SHT30;60354;47.798;12.472;2022-10-04T08:35:37;12.05;78.27
72380;SHT30;60354;47.798;12.472;2022-10-04T08:38:22;12.10;78.25
72380;SHT30;60354;47.798;12.472;2022-10-04T09:15:13;13.03;76.02
72380;SHT30;60354;47.798;12.472;2022-10-04T09:17:44;13.13;75.71
72380;SHT30;60354;47.798;12.472;2022-10-04T10:04:46;13.85;72.90
72380;SHT30;60354;47.798;12.472;2022-10-04T10:07:20;13.71;72.51
72380;SHT30;60354;47.798;12.472;2022-10-04T10:26:28;14.64;71.08
72380;SHT30;60354;47.798;12.472;2022-10-04T10:31:45;14.73;72.16
72380;SHT30;60354;47.798;12.472;2022-10-04T10:51:09;14.89;72.90
72380;SHT30;60354;47.798;12.472;2022-10-04T10:54:09;15.02;73.46
72380;SHT30;60354;47.798;12.472;2022-10-04T11:00:12;15.07;73.21
72380;SHT30;60354;47.798;12.472;2022-10-04T11:05:41;15.19;71.60
72380;SHT30;60354;47.798;12.472;2022-10-04T11:32:39;15.32;73.32
72380;SHT30;60354;47.798;12.472;2022-10-04T11:41:03;15.09;72.69
72380;SHT30;60354;47.798;12.472;2022-10-04T11:46:37;15.25;74.08
72380;SHT30;60354;47.798;12.472;2022-10-04T12:05:45;15.38;68.51
72380;SHT30;60354;47.798;12.472;2022-10-04T12:08:44;15.43;69.95
72380;SHT30;60354;47.798;12.472;2022-10-04T12:11:21;15.45;68.90
72380;SHT30;60354;47.798;12.472;2022-10-04T12:19:24;15.65;69.33
72380;SHT30;60354;47.798;12.472;2022-10-04T12:33:15;15.34;69.57
72380;SHT30;60354;47.798;12.472;2022-10-04T12:52:03;15.52;70.24
72380;SHT30;60354;47.798;12.472;2022-10-04T12:54:40;15.63;69.40
72380;SHT30;60354;47.798;12.472;2022-10-04T13:03:13;15.74;69.18
72380;SHT30;60354;47.798;12.472;2022-10-04T13:22:34;16.00;68.88
72380;SHT30;60354;47.798;12.472;2022-10-04T13:27:43;16.06;68.37
72380;SHT30;60354;47.798;12.472;2022-10-04T13:30:20;16.08;70.74
72380;SHT30;60354;47.798;12.472;2022-10-04T13:41:15;15.86;71.21
72380;SHT30;60354;47.798;12.472;2022-10-04T13:46:42;16.00;71.03
72380;SHT30;60354;47.798;12.472;2022-10-04T13:58:16;15.94;70.74
72380;SHT30;60354;47.798;12.472;2022-10-04T14:52:02;15.67;71.60
72380;SHT30;60354;47.798;12.472;2022-10-04T15:00:03;15.47;72.37
72380;SHT30;60354;47.798;12.472;2022-10-04T15:05:28;15.36;73.52
72380;SHT30;60354;47.798;12.472;2022-10-04T15:11:02;15.42;72.92
72380;SHT30;60354;47.798;12.472;2022-10-04T15:13:38;15.36;73.73
72380;SHT30;60354;47.798;12.472;2022-10-04T15:21:34;15.25;73.77
72380;SHT30;60354;47.798;12.472;2022-10-04T15:32:49;15.12;74.72
72380;SHT30;60354;47.798;12.472;2022-10-04T15:43:42;14.98;74.81
72380;SHT30;60354;47.798;12.472;2022-10-04T15:56:54;14.92;75.74
72380;SHT30;60354;47.798;12.472;2022-10-04T16:04:19;14.76;77.48
72380;SHT30;60354;47.798;12.472;2022-10-04T16:06:55;14.67;77.90
72380;SHT30;60354;47.798;12.472;2022-10-04T16:12:53;14.63;78.51
72380;SHT30;60354;47.798;12.472;2022-10-04T16:15:16;14.61;78.81
72380;SHT30;60354;47.798;12.472;2022-10-04T16:23:24;14.51;79.35
72380;SHT30;60354;47.798;12.472;2022-10-04T16:25:52;14.51;79.52
72380;SHT30;60354;47.798;12.472;2022-10-04T16:37:32;14.19;80.00
72380;SHT30;60354;47.798;12.472;2022-10-04T16:47:54;13.57;81.46
72380;SHT30;60354;47.798;12.472;2022-10-04T16:55:57;13.37;82.22
72380;SHT30;60354;47.798;12.472;2022-10-04T17:01:29;13.24;82.28
72380;SHT30;60354;47.798;12.472;2022-10-04T17:10:27;13.06;82.84
72380;SHT30;60354;47.798;12.472;2022-10-04T17:16:10;13.10;82.14
72380;SHT30;60354;47.798;12.472;2022-10-04T17:18:51;12.95;82.06
72380;SHT30;60354;47.798;12.472;2022-10-04T17:32:20;12.36;84.62
72380;SHT30;60354;47.798;12.472;2022-10-04T17:35:00;12.35;84.43
72380;SHT30;60354;47.798;12.472;2022-10-04T17:37:56;12.25;84.95
72380;SHT30;60354;47.798;12.472;2022-10-04T17:43:11;12.20;83.72
72380;SHT30;60354;47.798;12.472;2022-10-04T17:49:17;12.01;84.60
72380;SHT30;60354;47.798;12.472;2022-10-04T17:51:46;11.86;85.05
72380;SHT30;60354;47.798;12.472;2022-10-04T18:00:11;11.76;85.32
72380;SHT30;60354;47.798;12.472;2022-10-04T18:10:53;11.54;85.72
72380;SHT30;60354;47.798;12.472;2022-10-04T18:13:22;11.52;85.58
72380;SHT30;60354;47.798;12.472;2022-10-04T18:15:50;11.44;86.04
72380;SHT30;60354;47.798;12.472;2022-10-04T18:18:24;11.44;85.86
72380;SHT30;60354;47.798;12.472;2022-10-04T18:21:02;11.47;85.43
72380;SHT30;60354;47.798;12.472;2022-10-04T18:23:32;11.46;85.51
72380;SHT30;60354;47.798;12.472;2022-10-04T18:26:10;11.39;85.45
72380;SHT30;60354;47.798;12.472;2022-10-04T18:28:36;11.37;85.99
72380;SHT30;60354;47.798;12.472;2022-10-04T18:31:18;11.44;85.19
72380;SHT30;60354;47.798;12.472;2022-10-04T18:33:49;11.46;85.07
72380;SHT30;60354;47.798;12.472;2022-10-04T18:36:26;11.50;85.03
72380;SHT30;60354;47.798;12.472;2022-10-04T18:41:41;11.35;85.77
72380;SHT30;60354;47.798;12.472;2022-10-04T18:44:19;11.09;87.31
72380;SHT30;60354;47.798;12.472;2022-10-04T18:46:46;10.89;87.59
72380;SHT30;60354;47.798;12.472;2022-10-04T18:49:18;10.95;86.65
72380;SHT30;60354;47.798;12.472;2022-10-04T18:52:12;11.05;86.17
72380;SHT30;60354;47.798;12.472;2022-10-04T18:57:46;10.92;85.31
72380;SHT30;60354;47.798;12.472;2022-10-04T19:00:48;10.96;85.57
72380;SHT30;60354;47.798;12.472;2022-10-04T19:03:49;11.01;85.58
72380;SHT30;60354;47.798;12.472;2022-10-04T19:06:29;10.92;86.78
72380;SHT30;60354;47.798;12.472;2022-10-04T19:22:02;10.63;86.17
72380;SHT30;60354;47.798;12.472;2022-10-04T19:24:54;10.57;85.81
72380;SHT30;60354;47.798;12.472;2022-10-04T19:27:29;10.63;86.02
72380;SHT30;60354;47.798;12.472;2022-10-04T19:35:07;10.64;86.63
72380;SHT30;60354;47.798;12.472;2022-10-04T19:40:46;10.58;87.44
72380;SHT30;60354;47.798;12.472;2022-10-04T19:48:49;10.33;86.74
72380;SHT30;60354;47.798;12.472;2022-10-04T19:51:40;10.18;86.90
72380;SHT30;60354;47.798;12.472;2022-10-04T19:54:11;10.12;86.72
72380;SHT30;60354;47.798;12.472;2022-10-04T19:56:44;10.17;87.57
72380;SHT30;60354;47.798;12.472;2022-10-04T19:59:15;10.20;87.66
72380;SHT30;60354;47.798;12.472;2022-10-04T20:01:43;10.26;86.33
72380;SHT30;60354;47.798;12.472;2022-10-04T20:04:12;10.26;86.25
72380;SHT30;60354;47.798;12.472;2022-10-04T20:06:58;10.05;87.90
72380;SHT30;60354;47.798;12.472;2022-10-04T20:12:01;9.79;89.61
72380;SHT30;60354;47.798;12.472;2022-10-04T20:32:06;9.68;87.53
72380;SHT30;60354;47.798;12.472;2022-10-04T20:37:02;9.78;87.77
72380;SHT30;60354;47.798;12.472;2022-10-04T20:42:31;9.79;87.86
72380;SHT30;60354;47.798;12.472;2022-10-04T20:47:40;9.66;86.63
72380;SHT30;60354;47.798;12.472;2022-10-04T20:52:36;9.68;89.20
72380;SHT30;60354;47.798;12.472;2022-10-04T20:55:44;9.71;88.82
72380;SHT30;60354;47.798;12.472;2022-10-04T20:58:29;9.71;88.77
72380;SHT30;60354;47.798;12.472;2022-10-04T21:01:22;9.74;87.74
72380;SHT30;60354;47.798;12.472;2022-10-04T21:04:26;9.74;88.02
72380;SHT30;60354;47.798;12.472;2022-10-04T21:09:22;9.49;89.38
72380;SHT30;60354;47.798;12.472;2022-10-04T21:11:50;9.51;88.85
72380;SHT30;60354;47.798;12.472;2022-10-04T21:16:54;9.76;89.03
72380;SHT30;60354;47.798;12.472;2022-10-04T21:21:58;10.00;88.68
72380;SHT30;60354;47.798;12.472;2022-10-04T21:27:02;9.96;88.15
72380;SHT30;60354;47.798;12.472;2022-10-04T21:29:28;10.00;87.62
72380;SHT30;60354;47.798;12.472;2022-10-04T21:32:00;9.90;87.73
72380;SHT30;60354;47.798;12.472;2022-10-04T21:34:25;9.92;87.61
72380;SHT30;60354;47.798;12.472;2022-10-04T21:36:51;9.92;87.62
72380;SHT30;60354;47.798;12.472;2022-10-04T21:39:17;9.97;88.01
72380;SHT30;60354;47.798;12.472;2022-10-04T21:41:42;10.03;87.40
72380;SHT30;60354;47.798;12.472;2022-10-04T21:44:08;10.05;87.79
72380;SHT30;60354;47.798;12.472;2022-10-04T21:46:34;10.03;87.63
72380;SHT30;60354;47.798;12.472;2022-10-04T21:49:04;10.05;87.82
72380;SHT30;60354;47.798;12.472;2022-10-04T21:51:29;9.93;87.68
72380;SHT30;60354;47.798;12.472;2022-10-04T21:54:04;9.97;87.59
72380;SHT30;60354;47.798;12.472;2022-10-04T21:56:30;10.00;87.74
72380;SHT30;60354;47.798;12.472;2022-10-04T21:58:56;10.05;88.13
72380;SHT30;60354;47.798;12.472;2022-10-04T22:01:21;10.02;87.52
72380;SHT30;60354;47.798;12.472;2022-10-04T22:03:47;10.02;87.40
72380;SHT30;60354;47.798;12.472;2022-10-04T22:06:12;10.02;87.95
72380;SHT30;60354;47.798;12.472;2022-10-04T22:08:37;10.03;87.73
72380;SHT30;60354;47.798;12.472;2022-10-04T22:11:03;10.03;87.64
72380;SHT30;60354;47.798;12.472;2022-10-04T22:13:29;10.07;87.84
72380;SHT30;60354;47.798;12.472;2022-10-04T22:15:54;10.05;87.19
72380;SHT30;60354;47.798;12.472;2022-10-04T22:18:20;10.05;87.25
72380;SHT30;60354;47.798;12.472;2022-10-04T22:20:45;10.00;87.14
72380;SHT30;60354;47.798;12.472;2022-10-04T22:23:19;10.00;87.08
72380;SHT30;60354;47.798;12.472;2022-10-04T22:25:45;10.02;86.96
72380;SHT30;60354;47.798;12.472;2022-10-04T22:28:21;9.87;86.39
72380;SHT30;60354;47.798;12.472;2022-10-04T22:30:46;9.61;86.94
72380;SHT30;60354;47.798;12.472;2022-10-04T22:33:33;9.54;88.06
72380;SHT30;60354;47.798;12.472;2022-10-04T22:36:16;9.34;86.89
72380;SHT30;60354;47.798;12.472;2022-10-04T22:38:59;9.05;88.14
72380;SHT30;60354;47.798;12.472;2022-10-04T22:41:28;8.97;88.69
72380;SHT30;60354;47.798;12.472;2022-10-04T22:43:57;8.86;88.71
72380;SHT30;60354;47.798;12.472;2022-10-04T22:46:29;8.93;89.31
72380;SHT30;60354;47.798;12.472;2022-10-04T22:48:57;8.96;89.18
72380;SHT30;60354;47.798;12.472;2022-10-04T22:51:22;9.04;88.81
72380;SHT30;60354;47.798;12.472;2022-10-04T22:53:48;9.03;88.82
72380;SHT30;60354;47.798;12.472;2022-10-04T22:56:14;9.08;88.15
72380;SHT30;60354;47.798;12.472;2022-10-04T22:58:40;9.04;88.39
72380;SHT30;60354;47.798;12.472;2022-10-04T23:01:11;9.07;88.46
72380;SHT30;60354;47.798;12.472;2022-10-04T23:03:38;9.08;88.25
72380;SHT30;60354;47.798;12.472;2022-10-04T23:06:03;9.10;87.95
72380;SHT30;60354;47.798;12.472;2022-10-04T23:08:30;9.07;87.38
72380;SHT30;60354;47.798;12.472;2022-10-04T23:10:59;9.11;88.18
72380;SHT30;60354;47.798;12.472;2022-10-04T23:13:25;9.01;87.78
72380;SHT30;60354;47.798;12.472;2022-10-04T23:15:51;9.05;88.22
72380;SHT30;60354;47.798;12.472;2022-10-04T23:18:20;9.04;86.16
72380;SHT30;60354;47.798;12.472;2022-10-04T23:20:55;9.03;87.61
72380;SHT30;60354;47.798;12.472;2022-10-04T23:23:22;8.97;87.69
72380;SHT30;60354;47.798;12.472;2022-10-04T23:25:48;8.96;87.98
72380;SHT30;60354;47.798;12.472;2022-10-04T23:28:16;9.03;87.07
72380;SHT30;60354;47.798;12.472;2022-10-04T23:30:43;8.99;87.29
72380;SHT30;60354;47.798;12.472;2022-10-04T23:33:20;9.07;88.37
72380;SHT30;60354;47.798;12.472;2022-10-04T23:35:47;9.10;87.80
72380;SHT30;60354;47.798;12.472;2022-10-04T23:38:15;8.80;87.46
72380;SHT30;60354;47.798;12.472;2022-10-04T23:40:41;8.73;88.58
72380;SHT30;60354;47.798;12.472;2022-10-04T23:43:30;8.80;88.71
72380;SHT30;60354;47.798;12.472;2022-10-04T23:45:56;8.96;89.31
72380;SHT30;60354;47.798;12.472;2022-10-04T23:48:26;9.10;88.58
72380;SHT30;60354;47.798;12.472;2022-10-04T23:50:55;9.27;87.93
72380;SHT30;60354;47.798;12.472;2022-10-04T23:53:23;9.32;87.31
72380;SHT30;60354;47.798;12.472;2022-10-04T23:55:53;9.31;87.33
72380;SHT30;60354;47.798;12.472;2022-10-04T23:58:21;9.25;87.32
